Holly Ridge, North Carolina
Current Conditions -  °F | °C
As of 5:56 AM on Monday 20 Oct 2014 (Local Time) from KNCA Reporting Station
Clear Clear  
Wind Chill: 43°   Ceiling: Unl
Heat Index: 43°   Visibility: 10mi
Dew Point: 41°   Wind: 0mph
Humidity: 93%   Direction: NA
Pressure: 30.15"   Gusts: NA
Location:  34.5°N, 77.55°W
Report Text: KNCA 200956Z AUTO 00000KT 10SM CLR 06/05 A3015 RMK AO2 SLP213 T00610050
Loading
Personal Weather Stations






























Interactive Weather Map
Tropical Storm Tracking
New forecast layout! Learn more

10-Day Weather Forecast

Advertisements
Track Severe Weather on mobile